createdAt,value
2022-11-28T00:03:07.573Z,55.93
2022-11-28T00:08:09.632Z,55.67
2022-11-28T00:13:11.467Z,55.90
2022-11-28T00:18:13.118Z,55.58
2022-11-28T00:23:14.665Z,55.78
2022-11-28T00:28:16.258Z,55.32
2022-11-28T00:33:17.888Z,55.75
2022-11-28T00:38:19.469Z,56.05
2022-11-28T00:43:21.057Z,55.97
2022-11-28T00:48:23.306Z,55.44
2022-11-28T00:53:24.951Z,55.60
2022-11-28T00:58:26.555Z,55.62
2022-11-28T01:03:28.156Z,55.55
2022-11-28T01:08:30.211Z,55.18
2022-11-28T01:13:31.860Z,56.01
2022-11-28T01:18:33.442Z,55.59
2022-11-28T01:23:35.374Z,55.66
2022-11-28T01:28:36.959Z,55.26
2022-11-28T01:33:38.524Z,55.27
2022-11-28T01:38:41.221Z,55.23
2022-11-28T01:44:01.550Z,55.26
2022-11-28T01:49:13.316Z,55.25
2022-11-28T01:54:16.561Z,55.17
2022-11-28T01:59:20.476Z,55.46
2022-11-28T02:04:25.770Z,55.95
2022-11-28T02:09:27.368Z,55.67
2022-11-28T02:15:03.138Z,55.09
2022-11-28T02:20:38.082Z,55.43
2022-11-28T02:26:15.367Z,55.78
2022-11-28T02:31:36.178Z,55.21
2022-11-28T02:37:03.478Z,55.29
2022-11-28T02:42:15.166Z,55.79
2022-11-28T02:47:32.125Z,55.26
2022-11-28T02:52:39.249Z,55.45
2022-11-28T02:57:53.502Z,56.02
2022-11-28T03:03:25.485Z,56.03
2022-11-28T03:08:42.553Z,55.26
2022-11-28T03:13:59.673Z,55.36
2022-11-28T03:19:20.291Z,55.16
2022-11-28T03:24:24.991Z,55.96
2022-11-28T03:29:41.792Z,55.13
2022-11-28T03:34:47.602Z,55.51
2022-11-28T03:39:54.148Z,55.51
2022-11-28T03:45:05.923Z,55.33
2022-11-28T03:50:16.195Z,55.44
2022-11-28T03:55:24.817Z,55.19
2022-11-28T04:00:27.110Z,55.53
2022-11-28T04:05:49.445Z,54.96
2022-11-28T04:10:59.739Z,55.45
2022-11-28T04:16:11.580Z,55.49
2022-11-28T04:21:23.300Z,55.10
2022-11-28T04:26:32.207Z,54.90
2022-11-28T04:31:35.664Z,55.12
2022-11-28T04:36:41.061Z,55.27
2022-11-28T04:41:50.867Z,55.28
2022-11-28T04:46:55.781Z,55.31
2022-11-28T04:52:10.020Z,55.33
2022-11-28T04:57:21.704Z,54.56
2022-11-28T05:02:24.960Z,55.12
2022-11-28T05:07:26.674Z,54.92
2022-11-28T05:12:28.261Z,55.06
2022-11-28T05:17:30.177Z,54.80
2022-11-28T05:22:31.691Z,54.71
2022-11-28T05:27:33.300Z,54.91
2022-11-28T05:32:36.272Z,54.95
2022-11-28T05:37:38.159Z,54.79
2022-11-28T05:42:39.703Z,55.28
2022-11-28T05:47:41.301Z,55.33
2022-11-28T05:52:42.843Z,55.57
2022-11-28T05:57:44.361Z,54.66
2022-11-28T06:02:45.895Z,54.53
2022-11-28T06:07:47.534Z,54.84
2022-11-28T06:12:49.593Z,55.03
2022-11-28T06:17:51.130Z,54.73
2022-11-28T06:22:52.760Z,54.13
2022-11-28T06:27:54.305Z,54.75
2022-11-28T06:32:55.866Z,55.14
2022-11-28T06:37:57.542Z,54.57
2022-11-28T06:42:59.054Z,54.85
2022-11-28T06:48:01.479Z,54.60
2022-11-28T06:53:03.010Z,54.67
2022-11-28T06:58:04.563Z,54.80
2022-11-28T07:03:06.083Z,54.47
2022-11-28T07:08:07.723Z,54.73
2022-11-28T07:13:09.286Z,54.48
2022-11-28T07:18:10.793Z,54.58
2022-11-28T07:23:12.366Z,54.75
2022-11-28T07:28:13.903Z,54.55
2022-11-28T07:33:15.781Z,54.50
2022-11-28T07:38:17.315Z,54.40
2022-11-28T07:43:18.818Z,54.35
2022-11-28T07:48:20.378Z,54.37
2022-11-28T07:53:22.176Z,54.22
2022-11-28T07:58:23.819Z,54.71
2022-11-28T08:03:25.786Z,54.37
2022-11-28T08:08:31.117Z,54.34
2022-11-28T08:13:38.787Z,54.28
2022-11-28T08:18:41.607Z,54.24
2022-11-28T08:23:47.954Z,54.36
2022-11-28T08:40:25.994Z,54.87
2022-11-28T08:45:27.539Z,54.72
2022-11-28T08:50:29.198Z,54.56
2022-11-28T08:55:41.766Z,54.90
2022-11-28T09:01:25.907Z,54.86
2022-11-28T09:06:50.716Z,55.14
2022-11-28T09:11:53.406Z,55.07
2022-11-28T09:16:55.139Z,55.14
2022-11-28T09:21:58.089Z,54.81
2022-11-28T09:26:59.978Z,54.80
2022-11-28T09:32:01.576Z,54.84
2022-11-28T09:37:05.015Z,54.92
2022-11-28T09:42:17.578Z,54.88
2022-11-28T09:47:26.361Z,54.82
2022-11-28T09:52:45.810Z,54.09
2022-11-28T09:57:49.733Z,54.47
2022-11-28T10:03:11.921Z,54.26
2022-11-28T10:08:28.787Z,54.37
2022-11-28T10:14:08.949Z,53.89
2022-11-28T10:19:31.692Z,54.53
2022-11-28T10:24:48.361Z,53.96
2022-11-28T10:30:04.614Z,54.29
2022-11-28T10:35:13.784Z,54.16
2022-11-28T10:40:34.191Z,54.24
2022-11-28T10:46:04.211Z,54.20
2022-11-28T10:51:38.389Z,54.16
2022-11-28T10:56:45.955Z,53.85
2022-11-28T11:01:50.439Z,53.82
2022-11-28T11:07:16.428Z,53.85
2022-11-28T11:12:27.419Z,53.97
2022-11-28T11:17:36.581Z,53.48
2022-11-28T11:22:38.893Z,53.64
2022-11-28T11:27:49.850Z,53.51
2022-11-28T11:32:51.945Z,53.79
2022-11-28T11:37:55.511Z,53.18
2022-11-28T11:42:59.709Z,53.49
2022-11-28T11:48:03.890Z,53.54
2022-11-28T11:53:15.312Z,53.22
2022-11-28T11:58:25.510Z,53.07
2022-11-28T12:03:42.023Z,52.90
2022-11-28T12:08:51.071Z,52.88
2022-11-28T12:13:53.360Z,53.00
2022-11-28T12:18:57.983Z,53.06
2022-11-28T12:24:13.941Z,52.94
2022-11-28T12:29:40.274Z,52.98
2022-11-28T12:35:09.233Z,53.15
2022-11-28T12:40:38.216Z,53.00
2022-11-28T12:46:15.197Z,52.95
2022-11-28T12:51:49.321Z,52.89
2022-11-28T12:57:11.311Z,52.76
2022-11-28T13:02:55.785Z,52.79
2022-11-28T13:08:03.538Z,52.79
2022-11-28T13:13:17.851Z,52.89
2022-11-28T13:18:40.596Z,52.87
2022-11-28T13:23:56.201Z,52.49
2022-11-28T13:29:19.456Z,52.64
2022-11-28T13:34:21.892Z,52.85
2022-11-28T13:39:33.402Z,52.66
2022-11-28T13:44:50.076Z,52.28
2022-11-28T13:49:51.649Z,52.45
2022-11-28T13:54:56.416Z,52.50
2022-11-28T14:00:20.969Z,52.61
2022-11-28T14:05:38.023Z,52.56
2022-11-28T14:11:05.969Z,52.79
2022-11-28T14:16:17.830Z,52.62
2022-11-28T14:21:55.866Z,52.83
2022-11-28T14:27:00.869Z,52.80
2022-11-28T14:37:29.191Z,52.41
2022-11-28T14:48:16.982Z,52.79
2022-11-28T14:53:34.363Z,52.79
2022-11-28T14:58:36.159Z,52.68
2022-11-28T15:03:56.988Z,52.99
2022-11-28T15:09:14.201Z,52.63
2022-11-28T15:14:23.460Z,53.00
2022-11-28T15:19:30.887Z,52.83
2022-11-28T15:24:38.153Z,53.17
2022-11-28T15:29:39.705Z,52.87
2022-11-28T15:34:41.545Z,53.16
2022-11-28T15:39:46.766Z,53.17
2022-11-28T15:44:56.306Z,53.39
2022-11-28T15:50:11.456Z,53.02
2022-11-28T15:55:17.099Z,53.09
2022-11-28T16:00:21.859Z,53.24
2022-11-28T16:05:23.710Z,53.47
2022-11-28T16:10:31.863Z,53.52
2022-11-28T16:15:33.487Z,53.34
2022-11-28T16:20:37.078Z,53.55
2022-11-28T16:25:38.886Z,53.42
2022-11-28T16:30:48.056Z,53.42
2022-11-28T16:35:49.891Z,53.72
2022-11-28T16:40:59.001Z,53.93
2022-11-28T16:46:03.514Z,53.67
2022-11-28T16:51:11.106Z,53.79
2022-11-28T16:56:26.088Z,53.89
2022-11-28T17:01:29.194Z,53.89
2022-11-28T17:06:39.375Z,53.67
2022-11-28T17:11:44.829Z,54.00
2022-11-28T17:16:46.597Z,53.77
2022-11-28T17:21:51.734Z,54.08
2022-11-28T17:26:54.851Z,53.95
2022-11-28T17:31:58.821Z,53.92
2022-11-28T17:37:01.999Z,54.28
2022-11-28T17:42:04.562Z,54.02
2022-11-28T17:47:06.107Z,54.46
2022-11-28T17:52:09.456Z,54.29
2022-11-28T17:57:11.325Z,54.11
2022-11-28T18:02:13.426Z,54.11
2022-11-28T18:07:15.860Z,54.48
2022-11-28T18:12:17.503Z,54.34
2022-11-28T18:17:19.092Z,54.93
2022-11-28T18:22:20.699Z,54.36
2022-11-28T18:27:22.707Z,54.32
2022-11-28T18:32:24.548Z,54.29
2022-11-28T18:37:26.225Z,54.42
2022-11-28T18:42:27.808Z,54.17
2022-11-28T18:47:29.479Z,54.29
2022-11-28T18:52:32.971Z,54.13
2022-11-28T18:57:35.075Z,54.62
2022-11-28T19:02:36.767Z,54.38
2022-11-28T19:07:38.380Z,54.05
2022-11-28T19:12:41.075Z,54.09
2022-11-28T19:17:42.687Z,54.36
2022-11-28T19:22:44.283Z,54.07
2022-11-28T19:27:45.970Z,54.38
2022-11-28T19:32:47.974Z,54.41
2022-11-28T19:37:51.388Z,54.65
2022-11-28T19:42:52.986Z,54.05
2022-11-28T19:47:54.538Z,53.97
2022-11-28T19:52:56.232Z,54.18
2022-11-28T19:57:57.883Z,54.27
2022-11-28T20:02:59.542Z,54.48
2022-11-28T20:08:01.422Z,54.28
2022-11-28T20:13:03.332Z,54.35
2022-11-28T20:18:04.922Z,54.38
2022-11-28T20:23:06.771Z,54.28
2022-11-28T20:28:08.448Z,54.14
2022-11-28T20:33:10.043Z,54.74
2022-11-28T20:38:12.374Z,54.58
2022-11-28T20:43:13.948Z,54.60
2022-11-28T20:48:15.568Z,54.30
2022-11-28T20:53:19.892Z,54.69
2022-11-28T20:58:25.298Z,54.50
2022-11-28T21:03:27.079Z,54.75
2022-11-28T21:08:31.275Z,54.69
2022-11-28T21:13:33.146Z,54.61
2022-11-28T21:18:36.488Z,54.71
2022-11-28T21:23:38.698Z,54.73
2022-11-28T21:28:42.186Z,54.57
2022-11-28T21:33:48.059Z,54.60
2022-11-28T21:38:54.417Z,54.64
2022-11-28T21:43:56.703Z,54.52
2022-11-28T21:48:58.686Z,54.71
2022-11-28T21:54:00.264Z,54.42
2022-11-28T21:59:01.937Z,54.77
2022-11-28T22:04:04.510Z,54.78
2022-11-28T22:09:09.393Z,54.98
2022-11-28T22:14:12.234Z,54.61
2022-11-28T22:19:14.066Z,54.76
2022-11-28T22:24:17.723Z,54.51
2022-11-28T22:29:19.329Z,54.55
2022-11-28T22:34:21.093Z,55.06
2022-11-28T22:39:22.913Z,54.91
2022-11-28T22:44:24.488Z,54.51
2022-11-28T22:49:27.380Z,54.66
2022-11-28T22:54:28.966Z,54.68
2022-11-28T22:59:33.633Z,54.80
2022-11-28T23:04:35.380Z,54.99
2022-11-28T23:09:38.061Z,54.90
2022-11-28T23:14:42.330Z,55.01
2022-11-28T23:19:44.406Z,55.12
2022-11-28T23:24:46.114Z,55.14
2022-11-28T23:29:47.997Z,54.97
2022-11-28T23:34:49.587Z,55.15
2022-11-28T23:39:51.253Z,55.33
2022-11-28T23:44:52.901Z,54.98
2022-11-28T23:49:54.481Z,55.18
2022-11-28T23:54:56.150Z,55.39
